Time;durP1;ratioP1;P1;durP2;ratioP2;P2;SDS_P1;SDS_P2;PMS_P1;PMS_P2;Temp;Humidity;BMP_temperature;BMP_pressure;BME280_temperature;BME280_humidity;BME280_pressure;Samples;Min_cycle;Max_cycle;Signal;HPM_P1;HPM_P2
2022/05/21 00:00:12;;;;;;;15.65;8.02;;;;;;;;;;7381328;19;20144;-81
2022/05/21 00:02:38;;;;;;;14.52;7.75;;;;;;;;;;7376105;19;20184;-82
2022/05/21 00:05:04;;;;;;;17.42;7.80;;;;;;;;;;7378307;19;20228;-83
2022/05/21 00:07:30;;;;;;;10.98;6.90;;;;;;;;;;7382746;19;20579;-85
2022/05/21 00:09:56;;;;;;;13.98;7.47;;;;;;;;;;7381480;19;20153;-82
2022/05/21 00:12:22;;;;;;;13.70;7.18;;;;;;;;;;7389381;19;20172;-84
2022/05/21 00:14:49;;;;;;;12.07;6.83;;;;;;;;;;7385082;19;20177;-83
2022/05/21 00:17:15;;;;;;;14.33;8.83;;;;;;;;;;7382404;19;20156;-83
2022/05/21 00:19:41;;;;;;;10.90;6.72;;;;;;;;;;7377983;19;20162;-82
2022/05/21 00:22:07;;;;;;;10.27;8.35;;;;;;;;;;7375042;19;20149;-83
2022/05/21 00:24:33;;;;;;;9.30;7.47;;;;;;;;;;7373531;19;20162;-84
2022/05/21 00:26:59;;;;;;;10.03;6.83;;;;;;;;;;7382965;19;20168;-82
2022/05/21 00:29:27;;;;;;;10.13;6.97;;;;;;;;;;7388328;19;20153;-83
2022/05/21 00:31:54;;;;;;;7.57;6.67;;;;;;;;;;7387283;19;20136;-82
2022/05/21 00:34:20;;;;;;;10.23;6.87;;;;;;;;;;7384368;19;20156;-81
2022/05/21 00:36:46;;;;;;;7.73;6.57;;;;;;;;;;7383013;19;20152;-81
2022/05/21 00:39:12;;;;;;;10.50;7.90;;;;;;;;;;7380524;19;20552;-81
2022/05/21 00:41:39;;;;;;;9.70;7.03;;;;;;;;;;7376058;19;20144;-83
2022/05/21 00:44:05;;;;;;;10.10;6.93;;;;;;;;;;7371927;19;20119;-82
2022/05/21 00:46:37;;;;;;;15.20;7.10;;;;;;;;;;7378451;19;20660;-83
2022/05/21 00:49:09;;;;;;;11.47;7.47;;;;;;;;;;7379839;19;22191;-83
2022/05/21 00:51:39;;;;;;;9.83;7.07;;;;;;;;;;7371321;19;20127;-83
2022/05/21 00:54:05;;;;;;;12.00;7.23;;;;;;;;;;7373558;19;20148;-82
2022/05/21 00:56:33;;;;;;;11.10;7.03;;;;;;;;;;7378979;19;20165;-83
2022/05/21 01:01:46;;;;;;;9.03;7.23;;;;;;;;;;7373982;19;20151;-83
2022/05/21 01:04:12;;;;;;;7.73;6.30;;;;;;;;;;7376235;19;20128;-83
2022/05/21 01:06:38;;;;;;;7.83;6.23;;;;;;;;;;7369971;19;20168;-83
2022/05/21 01:09:05;;;;;;;11.30;6.73;;;;;;;;;;7377612;19;20164;-82
2022/05/21 01:11:31;;;;;;;10.20;6.53;;;;;;;;;;7371881;19;20156;-82
2022/05/21 01:13:57;;;;;;;10.23;6.70;;;;;;;;;;7381070;19;20152;-82
2022/05/21 01:16:23;;;;;;;7.53;5.80;;;;;;;;;;7379596;19;20172;-82
2022/05/21 01:18:49;;;;;;;10.03;6.43;;;;;;;;;;7369498;19;20157;-82
2022/05/21 01:21:15;;;;;;;8.90;6.30;;;;;;;;;;7376873;19;20161;-82
2022/05/21 01:23:41;;;;;;;11.50;6.90;;;;;;;;;;7373809;19;20456;-82
2022/05/21 01:26:11;;;;;;;8.60;6.27;;;;;;;;;;7376265;19;20585;-82
2022/05/21 01:28:37;;;;;;;9.57;6.13;;;;;;;;;;7377172;19;20474;-82
2022/05/21 01:31:04;;;;;;;9.10;6.40;;;;;;;;;;7376105;19;20428;-82
2022/05/21 01:33:32;;;;;;;9.70;6.37;;;;;;;;;;7376282;19;20125;-83
2022/05/21 01:35:58;;;;;;;9.93;6.63;;;;;;;;;;7376843;19;20529;-82
2022/05/21 01:38:25;;;;;;;8.40;6.37;;;;;;;;;;7376174;19;20152;-82
2022/05/21 01:40:51;;;;;;;9.47;6.27;;;;;;;;;;7387571;19;20572;-82
2022/05/21 01:46:01;;;;;;;8.50;6.93;;;;;;;;;;7369420;19;20160;-83
2022/05/21 01:48:28;;;;;;;8.70;6.10;;;;;;;;;;7377686;19;20457;-82
2022/05/21 01:50:55;;;;;;;8.70;6.03;;;;;;;;;;7373786;19;20130;-82
2022/05/21 01:53:22;;;;;;;6.97;5.83;;;;;;;;;;7380002;19;20133;-82
2022/05/21 01:55:48;;;;;;;9.57;6.47;;;;;;;;;;7374277;19;20149;-83
2022/05/21 01:58:15;;;;;;;8.33;6.53;;;;;;;;;;7376726;19;20121;-83
2022/05/21 02:00:41;;;;;;;9.55;6.65;;;;;;;;;;7377254;19;20153;-83
2022/05/21 02:03:08;;;;;;;10.23;6.27;;;;;;;;;;7400393;19;20441;-83
2022/05/21 02:05:34;;;;;;;9.87;6.27;;;;;;;;;;7409541;19;20289;-82
2022/05/21 02:08:00;;;;;;;6.57;5.97;;;;;;;;;;7407281;19;20125;-82
2022/05/21 02:10:26;;;;;;;9.07;6.03;;;;;;;;;;7408441;19;20177;-82
2022/05/21 02:12:52;;;;;;;7.60;6.17;;;;;;;;;;7409139;19;20153;-82
2022/05/21 02:15:19;;;;;;;10.10;7.43;;;;;;;;;;7402070;19;20145;-83
2022/05/21 02:17:45;;;;;;;8.40;5.90;;;;;;;;;;7410828;19;20173;-82
2022/05/21 02:20:11;;;;;;;11.00;7.47;;;;;;;;;;7406716;19;20384;-83
2022/05/21 02:22:37;;;;;;;13.00;6.77;;;;;;;;;;7408455;19;20145;-82
2022/05/21 02:25:07;;;;;;;9.33;6.40;;;;;;;;;;7408858;19;20156;-83
2022/05/21 02:27:33;;;;;;;11.87;7.27;;;;;;;;;;7413692;19;20161;-82
2022/05/21 02:29:59;;;;;;;7.93;6.80;;;;;;;;;;7417798;19;20156;-82
2022/05/21 02:32:25;;;;;;;10.57;6.73;;;;;;;;;;7416961;19;20177;-81
2022/05/21 02:34:51;;;;;;;9.80;6.93;;;;;;;;;;7415203;19;20153;-81
2022/05/21 02:40:02;;;;;;;10.15;6.63;;;;;;;;;;7418403;19;20132;-82
2022/05/21 02:42:43;;;;;;;9.57;7.23;;;;;;;;;;7413200;19;20141;-82
2022/05/21 02:45:11;;;;;;;8.90;6.90;;;;;;;;;;7379328;19;20172;-82
2022/05/21 02:47:38;;;;;;;14.80;8.57;;;;;;;;;;7384059;19;20184;-80
2022/05/21 02:50:04;;;;;;;13.87;8.10;;;;;;;;;;7384082;19;20166;-81
2022/05/21 02:52:30;;;;;;;14.73;9.10;;;;;;;;;;7379140;19;20193;-81
2022/05/21 02:54:57;;;;;;;12.18;8.45;;;;;;;;;;7386439;19;20176;-82
2022/05/21 02:57:23;;;;;;;8.30;7.43;;;;;;;;;;7384682;19;20149;-83
2022/05/21 02:59:50;;;;;;;12.33;8.97;;;;;;;;;;7387328;19;20193;-81
2022/05/21 03:02:17;;;;;;;9.03;8.13;;;;;;;;;;7370771;19;20153;-81
2022/05/21 03:04:43;;;;;;;11.13;8.15;;;;;;;;;;7387110;19;20173;-81
2022/05/21 03:07:09;;;;;;;12.07;8.27;;;;;;;;;;7386432;19;20208;-83
2022/05/21 03:12:19;;;;;;;15.52;8.85;;;;;;;;;;7379414;19;20511;-82
2022/05/21 03:14:45;;;;;;;10.47;9.00;;;;;;;;;;7373956;19;20220;-81
2022/05/21 03:17:12;;;;;;;12.73;8.60;;;;;;;;;;7381794;19;20476;-82
2022/05/21 03:19:38;;;;;;;10.17;8.37;;;;;;;;;;7377480;19;20141;-81
2022/05/21 03:22:04;;;;;;;10.47;8.23;;;;;;;;;;7379630;19;20734;-81
2022/05/21 03:24:31;;;;;;;11.00;8.90;;;;;;;;;;7384055;19;20149;-81
2022/05/21 03:26:57;;;;;;;9.87;8.50;;;;;;;;;;7383871;19;20149;-81
2022/05/21 03:29:23;;;;;;;12.87;9.47;;;;;;;;;;7381831;19;20139;-80
2022/05/21 03:31:49;;;;;;;12.20;8.07;;;;;;;;;;7375771;19;20825;-81
2022/05/21 03:34:15;;;;;;;10.53;8.37;;;;;;;;;;7379981;19;20144;-81
2022/05/21 03:36:41;;;;;;;13.80;9.70;;;;;;;;;;7372830;19;20732;-83
2022/05/21 03:39:07;;;;;;;11.40;9.33;;;;;;;;;;7369371;19;20261;-81
2022/05/21 03:41:36;;;;;;;11.33;9.07;;;;;;;;;;7387294;19;20192;-81
2022/05/21 03:44:02;;;;;;;11.70;9.43;;;;;;;;;;7379272;19;20614;-81
2022/05/21 03:46:28;;;;;;;10.93;8.77;;;;;;;;;;7381320;19;20619;-81
2022/05/21 03:48:54;;;;;;;10.20;8.23;;;;;;;;;;7377601;19;20152;-81
2022/05/21 03:51:20;;;;;;;13.90;9.20;;;;;;;;;;7372936;19;20220;-82
2022/05/21 03:53:46;;;;;;;11.67;8.73;;;;;;;;;;7377497;19;20162;-82
2022/05/21 03:56:12;;;;;;;11.30;8.27;;;;;;;;;;7374256;19;20802;-82
2022/05/21 03:58:38;;;;;;;11.00;9.10;;;;;;;;;;7381448;19;20459;-80
2022/05/21 04:01:04;;;;;;;12.47;9.17;;;;;;;;;;7376659;19;20144;-81
2022/05/21 04:03:34;;;;;;;11.73;9.37;;;;;;;;;;7378045;19;20129;-82
2022/05/21 04:06:00;;;;;;;13.40;9.50;;;;;;;;;;7369726;19;20558;-81
2022/05/21 04:08:26;;;;;;;11.13;8.90;;;;;;;;;;7371582;19;20170;-81
2022/05/21 04:10:52;;;;;;;13.17;8.47;;;;;;;;;;7375594;19;20225;-80
2022/05/21 04:13:18;;;;;;;13.77;8.93;;;;;;;;;;7385917;19;20137;-81
2022/05/21 04:15:45;;;;;;;15.00;9.07;;;;;;;;;;7386511;19;20188;-84
2022/05/21 04:18:11;;;;;;;11.18;8.68;;;;;;;;;;7381266;19;20216;-82
2022/05/21 04:20:37;;;;;;;8.60;7.70;;;;;;;;;;7379731;19;20152;-82
2022/05/21 04:23:04;;;;;;;10.00;7.63;;;;;;;;;;7411318;19;20129;-82
2022/05/21 04:25:30;;;;;;;13.63;8.20;;;;;;;;;;7414221;19;20169;-82
2022/05/21 04:27:56;;;;;;;9.87;7.53;;;;;;;;;;7416907;19;20137;-82
2022/05/21 04:30:25;;;;;;;9.00;7.47;;;;;;;;;;7417969;19;20125;-82
2022/05/21 04:32:52;;;;;;;9.83;8.43;;;;;;;;;;7403121;19;20144;-80
2022/05/21 04:35:18;;;;;;;10.63;7.90;;;;;;;;;;7387753;19;20165;-82
2022/05/21 04:37:45;;;;;;;7.67;6.73;;;;;;;;;;7390666;19;20140;-80
2022/05/21 04:40:13;;;;;;;11.37;7.87;;;;;;;;;;7390717;19;20582;-81
2022/05/21 04:42:39;;;;;;;11.00;7.73;;;;;;;;;;7386596;19;20212;-81
2022/05/21 04:45:06;;;;;;;10.33;7.50;;;;;;;;;;7387290;19;20180;-81
2022/05/21 04:47:32;;;;;;;9.97;7.70;;;;;;;;;;7391620;19;20170;-80
2022/05/21 04:49:58;;;;;;;10.40;7.40;;;;;;;;;;7382725;19;20564;-80
2022/05/21 04:52:24;;;;;;;9.33;7.80;;;;;;;;;;7378982;19;20129;-80
2022/05/21 04:54:50;;;;;;;8.50;7.50;;;;;;;;;;7377517;19;20145;-80
2022/05/21 04:57:16;;;;;;;7.97;7.17;;;;;;;;;;7381416;19;20155;-80
2022/05/21 04:59:42;;;;;;;9.93;7.80;;;;;;;;;;7381958;19;20498;-79
2022/05/21 05:02:09;;;;;;;9.77;7.27;;;;;;;;;;7380598;19;20180;-80
2022/05/21 05:04:35;;;;;;;13.40;7.77;;;;;;;;;;7390255;19;20155;-81
2022/05/21 05:07:06;;;;;;;8.90;6.57;;;;;;;;;;7403892;19;20145;-81
2022/05/21 05:09:38;;;;;;;10.63;7.00;;;;;;;;;;7408255;19;20113;-80
2022/05/21 05:12:04;;;;;;;8.40;6.80;;;;;;;;;;7385133;19;20516;-80
2022/05/21 05:14:30;;;;;;;7.90;6.70;;;;;;;;;;7387265;19;20117;-80
2022/05/21 05:16:56;;;;;;;6.83;6.13;;;;;;;;;;7387702;19;20140;-80
2022/05/21 05:19:22;;;;;;;7.65;6.68;;;;;;;;;;7391117;19;20633;-81
2022/05/21 05:21:48;;;;;;;10.33;6.80;;;;;;;;;;7388134;19;20141;-82
2022/05/21 05:24:14;;;;;;;8.53;6.70;;;;;;;;;;7382434;19;20200;-82
2022/05/21 05:26:40;;;;;;;7.83;6.17;;;;;;;;;;7383369;19;20745;-79
2022/05/21 05:29:08;;;;;;;7.93;6.60;;;;;;;;;;7384901;19;20153;-82
2022/05/21 05:31:34;;;;;;;8.23;6.90;;;;;;;;;;7378229;19;20160;-81
2022/05/21 05:34:00;;;;;;;8.07;6.43;;;;;;;;;;7384620;19;20157;-80
2022/05/21 05:36:28;;;;;;;9.97;5.97;;;;;;;;;;7382921;19;20588;-81
2022/05/21 05:38:54;;;;;;;9.37;6.80;;;;;;;;;;7380621;19;20124;-81
2022/05/21 05:41:20;;;;;;;7.10;5.40;;;;;;;;;;7387416;19;20160;-80
2022/05/21 05:43:46;;;;;;;6.40;5.17;;;;;;;;;;7379715;19;20167;-80
2022/05/21 05:46:12;;;;;;;6.30;5.07;;;;;;;;;;7387360;19;20179;-80
2022/05/21 05:48:38;;;;;;;6.67;4.77;;;;;;;;;;7391149;19;20125;-80
2022/05/21 05:51:04;;;;;;;5.80;4.93;;;;;;;;;;7383161;19;20125;-80
2022/05/21 05:53:30;;;;;;;5.33;4.17;;;;;;;;;;7386656;19;20125;-80
2022/05/21 05:55:56;;;;;;;5.60;4.97;;;;;;;;;;7385417;19;20623;-80
2022/05/21 06:01:07;;;;;;;6.37;4.40;;;;;;;;;;7388350;19;20128;-80
2022/05/21 06:03:34;;;;;;;5.53;4.67;;;;;;;;;;7396408;19;20151;-80
2022/05/21 06:06:00;;;;;;;6.65;4.82;;;;;;;;;;7385696;19;20164;-80
2022/05/21 06:08:27;;;;;;;4.43;4.03;;;;;;;;;;7393169;19;20136;-80
2022/05/21 06:10:53;;;;;;;7.90;4.20;;;;;;;;;;7389159;19;20167;-79
2022/05/21 06:13:19;;;;;;;4.32;3.95;;;;;;;;;;7391933;19;20129;-79
2022/05/21 06:15:45;;;;;;;5.07;3.70;;;;;;;;;;7388316;19;20192;-79
2022/05/21 06:18:16;;;;;;;6.65;3.92;;;;;;;;;;7392393;19;20196;-79
2022/05/21 06:20:43;;;;;;;7.28;3.78;;;;;;;;;;7388115;19;20145;-77
2022/05/21 06:23:09;;;;;;;6.85;3.45;;;;;;;;;;7383432;19;20119;-78
2022/05/21 06:25:35;;;;;;;4.53;3.85;;;;;;;;;;7387481;19;20550;-79
2022/05/21 06:28:02;;;;;;;5.22;3.88;;;;;;;;;;7379647;19;20124;-80
2022/05/21 06:30:30;;;;;;;7.43;3.50;;;;;;;;;;7378773;19;20666;-79
2022/05/21 06:32:57;;;;;;;4.28;3.60;;;;;;;;;;7372591;19;20171;-81
2022/05/21 06:35:23;;;;;;;3.93;3.60;;;;;;;;;;7373948;19;20626;-81
2022/05/21 06:37:49;;;;;;;4.63;3.67;;;;;;;;;;7374367;19;20144;-79
2022/05/21 06:40:16;;;;;;;5.50;3.70;;;;;;;;;;7381183;19;20168;-80
2022/05/21 06:42:42;;;;;;;5.25;3.25;;;;;;;;;;7368584;19;20626;-82
2022/05/21 06:45:09;;;;;;;4.10;3.50;;;;;;;;;;7371912;19;20185;-79
2022/05/21 06:47:36;;;;;;;4.37;3.23;;;;;;;;;;7381555;19;20157;-82
2022/05/21 06:50:03;;;;;;;3.60;3.20;;;;;;;;;;7376801;19;20141;-80
2022/05/21 06:52:30;;;;;;;4.20;3.40;;;;;;;;;;7368659;19;20152;-82
2022/05/21 06:54:56;;;;;;;7.82;3.63;;;;;;;;;;7380268;19;20654;-80
2022/05/21 06:57:26;;;;;;;4.10;3.40;;;;;;;;;;7365422;19;20176;-79
2022/05/21 06:59:52;;;;;;;21.63;5.43;;;;;;;;;;7374207;19;20188;-78
2022/05/21 07:02:18;;;;;;;3.83;3.53;;;;;;;;;;7366854;19;20521;-80
2022/05/21 07:07:35;;;;;;;5.57;3.88;;;;;;;;;;7378585;19;20661;-79
2022/05/21 07:10:04;;;;;;;3.55;3.15;;;;;;;;;;7374272;19;20202;-79
2022/05/21 07:12:30;;;;;;;3.92;3.38;;;;;;;;;;7368215;19;20150;-80
2022/05/21 07:14:56;;;;;;;4.75;3.78;;;;;;;;;;7381784;19;20164;-79
2022/05/21 07:17:22;;;;;;;5.10;3.20;;;;;;;;;;7381844;19;20655;-77
2022/05/21 07:19:48;;;;;;;5.85;3.95;;;;;;;;;;7382330;19;20140;-77
2022/05/21 07:22:14;;;;;;;4.78;3.30;;;;;;;;;;7380275;19;20125;-77
2022/05/21 07:24:42;;;;;;;6.53;3.78;;;;;;;;;;7383842;19;20162;-78
2022/05/21 07:27:08;;;;;;;3.70;3.40;;;;;;;;;;7380482;19;20164;-78
2022/05/21 07:29:36;;;;;;;3.88;3.53;;;;;;;;;;7374605;19;20155;-77
2022/05/21 07:32:02;;;;;;;5.00;3.35;;;;;;;;;;7369079;19;20129;-78
2022/05/21 07:34:28;;;;;;;4.38;3.65;;;;;;;;;;7373825;19;20220;-77
2022/05/21 07:36:54;;;;;;;8.23;3.95;;;;;;;;;;7381636;19;20132;-77
2022/05/21 07:39:20;;;;;;;6.55;4.32;;;;;;;;;;7380219;19;20156;-77
2022/05/21 07:41:46;;;;;;;4.70;3.55;;;;;;;;;;7378520;19;20136;-78
2022/05/21 07:44:12;;;;;;;5.30;3.53;;;;;;;;;;7376397;19;21044;-78
2022/05/21 07:46:38;;;;;;;4.07;3.63;;;;;;;;;;7360848;19;20145;-80
2022/05/21 07:49:04;;;;;;;4.70;3.53;;;;;;;;;;7367032;19;20145;-79
2022/05/21 07:51:30;;;;;;;4.75;3.45;;;;;;;;;;7390871;19;20172;-79
2022/05/21 07:53:56;;;;;;;4.55;3.53;;;;;;;;;;7387590;19;20168;-79
2022/05/21 07:56:22;;;;;;;4.22;3.80;;;;;;;;;;7377397;19;20634;-78
2022/05/21 07:58:49;;;;;;;6.15;4.25;;;;;;;;;;7388821;19;20140;-78
2022/05/21 08:01:16;;;;;;;4.32;3.92;;;;;;;;;;7394434;19;20121;-79
2022/05/21 08:03:42;;;;;;;5.00;3.38;;;;;;;;;;7380433;19;20168;-78
2022/05/21 08:06:08;;;;;;;4.38;3.63;;;;;;;;;;7383851;19;20145;-79
2022/05/21 08:08:34;;;;;;;6.05;3.60;;;;;;;;;;7384903;19;20152;-78
2022/05/21 08:11:00;;;;;;;4.93;3.90;;;;;;;;;;7388419;19;20160;-79
2022/05/21 08:13:26;;;;;;;4.57;3.75;;;;;;;;;;7392189;19;20152;-79
2022/05/21 08:15:52;;;;;;;5.72;4.00;;;;;;;;;;7387821;19;20186;-79
2022/05/21 08:18:18;;;;;;;3.28;2.97;;;;;;;;;;7387394;19;20619;-80
2022/05/21 08:20:44;;;;;;;3.97;3.67;;;;;;;;;;7386078;19;20205;-79
2022/05/21 08:28:44;;;;;;;4.10;3.63;;;;;;;;;;7386003;19;20124;-81
2022/05/21 08:31:10;;;;;;;3.90;3.60;;;;;;;;;;7385153;19;20599;-81
2022/05/21 08:33:36;;;;;;;4.55;3.83;;;;;;;;;;7381507;19;20641;-80
2022/05/21 08:36:03;;;;;;;4.13;3.72;;;;;;;;;;7382511;19;20159;-79
2022/05/21 08:38:29;;;;;;;4.93;3.58;;;;;;;;;;7383206;19;20128;-80
2022/05/21 08:40:57;;;;;;;4.10;3.70;;;;;;;;;;7384015;19;20141;-80
2022/05/21 08:43:36;;;;;;;4.40;4.00;;;;;;;;;;7382257;19;20163;-80
2022/05/21 08:46:02;;;;;;;4.75;3.60;;;;;;;;;;7383296;19;20148;-80
2022/05/21 08:48:31;;;;;;;6.15;3.78;;;;;;;;;;7384412;19;20132;-79
2022/05/21 08:50:57;;;;;;;4.35;3.95;;;;;;;;;;7384247;19;20160;-80
2022/05/21 08:53:26;;;;;;;5.70;3.88;;;;;;;;;;7382812;19;20144;-80
2022/05/21 08:55:53;;;;;;;4.32;3.92;;;;;;;;;;7387713;19;20216;-80
2022/05/21 08:58:30;;;;;;;4.35;3.95;;;;;;;;;;7419612;19;20114;-80
2022/05/21 09:00:56;;;;;;;4.30;3.88;;;;;;;;;;7422109;19;20113;-80
2022/05/21 09:03:23;;;;;;;4.85;3.97;;;;;;;;;;7419677;19;20164;-80
2022/05/21 09:06:09;;;;;;;4.40;4.00;;;;;;;;;;7412202;19;20173;-79
2022/05/21 09:08:50;;;;;;;4.75;4.07;;;;;;;;;;7379264;19;20157;-79
2022/05/21 09:11:21;;;;;;;7.65;3.65;;;;;;;;;;7382489;19;20141;-79
2022/05/21 09:14:03;;;;;;;3.90;2.90;;;;;;;;;;7385208;19;20509;-80
2022/05/21 09:19:20;;;;;;;3.95;3.00;;;;;;;;;;7384134;19;20124;-78
2022/05/21 09:21:46;;;;;;;3.90;2.67;;;;;;;;;;7381084;19;20422;-80
2022/05/21 09:24:32;;;;;;;3.33;2.63;;;;;;;;;;7367166;19;20784;-80
2022/05/21 09:26:58;;;;;;;4.53;2.53;;;;;;;;;;7372172;19;20360;-81
2022/05/21 09:29:28;;;;;;;4.43;2.28;;;;;;;;;;7374145;19;20212;-81
2022/05/21 09:31:54;;;;;;;2.88;2.42;;;;;;;;;;7376274;19;20216;-81
2022/05/21 09:34:26;;;;;;;3.92;2.42;;;;;;;;;;7371002;19;20566;-80
2022/05/21 09:36:52;;;;;;;2.53;2.33;;;;;;;;;;7383450;19;20176;-79
2022/05/21 09:39:51;;;;;;;2.92;2.50;;;;;;;;;;7386750;19;20197;-79
2022/05/21 09:45:24;;;;;;;2.38;2.17;;;;;;;;;;7385660;19;20151;-80
2022/05/21 09:47:50;;;;;;;3.35;2.45;;;;;;;;;;7384164;19;20172;-80
2022/05/21 09:50:20;;;;;;;2.30;2.10;;;;;;;;;;7382110;19;20141;-80
2022/05/21 09:52:49;;;;;;;4.03;1.90;;;;;;;;;;7390105;19;20128;-80
2022/05/21 09:55:20;;;;;;;2.55;2.05;;;;;;;;;;7391317;19;20141;-80
2022/05/21 09:57:46;;;;;;;2.22;2.03;;;;;;;;;;7393973;19;20136;-81
2022/05/21 10:00:30;;;;;;;3.80;1.67;;;;;;;;;;7395233;19;20133;-80
2022/05/21 10:02:58;;;;;;;1.90;1.70;;;;;;;;;;7390339;19;20491;-80
2022/05/21 10:05:26;;;;;;;2.00;1.90;;;;;;;;;;7387353;19;20169;-80
2022/05/21 10:10:59;;;;;;;2.70;1.58;;;;;;;;;;7393353;19;20149;-80
2022/05/21 10:13:27;;;;;;;2.67;1.40;;;;;;;;;;7385460;19;20201;-81
2022/05/21 10:15:57;;;;;;;1.92;1.50;;;;;;;;;;7373315;19;20216;-81
2022/05/21 10:18:26;;;;;;;1.40;1.30;;;;;;;;;;7384716;19;20550;-81
2022/05/21 10:20:55;;;;;;;1.75;1.40;;;;;;;;;;7379123;19;20137;-81
2022/05/21 10:23:40;;;;;;;2.53;1.50;;;;;;;;;;7381185;19;20527;-81
2022/05/21 10:26:24;;;;;;;2.40;1.40;;;;;;;;;;7380664;19;20224;-80
2022/05/21 10:28:56;;;;;;;3.78;1.65;;;;;;;;;;7386557;19;20230;-80
2022/05/21 10:31:27;;;;;;;2.35;1.33;;;;;;;;;;7384361;19;20145;-80
2022/05/21 10:33:56;;;;;;;1.58;1.40;;;;;;;;;;7377551;19;20444;-80
2022/05/21 10:36:29;;;;;;;2.15;1.40;;;;;;;;;;7379452;19;20176;-80
2022/05/21 10:39:01;;;;;;;1.95;1.50;;;;;;;;;;7388262;19;20132;-80
2022/05/21 10:41:30;;;;;;;1.58;1.48;;;;;;;;;;7381526;19;20145;-80
2022/05/21 10:44:23;;;;;;;2.47;1.85;;;;;;;;;;7383943;19;20120;-80
2022/05/21 10:47:03;;;;;;;1.95;1.85;;;;;;;;;;7379401;19;20163;-78
2022/05/21 10:49:35;;;;;;;2.45;1.95;;;;;;;;;;7390489;19;20140;-80
2022/05/21 10:52:02;;;;;;;2.33;2.10;;;;;;;;;;7389072;19;20133;-80
2022/05/21 10:54:32;;;;;;;2.20;1.92;;;;;;;;;;7382590;19;20937;-81
2022/05/21 10:57:16;;;;;;;5.05;2.30;;;;;;;;;;7380337;19;20139;-80
2022/05/21 10:59:48;;;;;;;2.90;2.00;;;;;;;;;;7397973;19;20129;-80
2022/05/21 11:02:17;;;;;;;2.25;1.90;;;;;;;;;;7384213;19;20585;-81
2022/05/21 11:05:02;;;;;;;3.83;2.20;;;;;;;;;;7396342;19;20176;-81
2022/05/21 11:07:28;;;;;;;3.45;2.13;;;;;;;;;;7401855;19;20240;-81
2022/05/21 11:09:57;;;;;;;2.55;2.22;;;;;;;;;;7375293;19;20144;-80
2022/05/21 11:12:28;;;;;;;2.92;2.15;;;;;;;;;;7371084;19;20699;-80
2022/05/21 11:14:59;;;;;;;2.67;2.05;;;;;;;;;;7381763;19;20149;-80
2022/05/21 11:17:46;;;;;;;3.58;2.05;;;;;;;;;;7384255;19;20132;-80
2022/05/21 11:20:23;;;;;;;4.60;2.38;;;;;;;;;;7420099;19;20164;-81
2022/05/21 11:23:07;;;;;;;2.42;1.88;;;;;;;;;;7413550;19;20148;-82
2022/05/21 11:25:36;;;;;;;2.22;2.08;;;;;;;;;;7389602;19;20224;-80
2022/05/21 11:28:19;;;;;;;3.67;2.30;;;;;;;;;;7389673;19;20139;-80
2022/05/21 11:30:45;;;;;;;3.22;2.30;;;;;;;;;;7381690;19;20152;-80
2022/05/21 11:38:53;;;;;;;2.92;2.70;;;;;;;;;;7388069;19;20132;-79
2022/05/21 11:41:29;;;;;;;3.75;2.30;;;;;;;;;;7376968;19;20239;-79
2022/05/21 11:47:05;;;;;;;4.28;2.70;;;;;;;;;;7384729;19;20637;-79
2022/05/21 11:49:32;;;;;;;3.53;3.08;;;;;;;;;;7382198;19;20148;-80
2022/05/21 11:51:58;;;;;;;4.70;3.05;;;;;;;;;;7383028;19;20148;-79
2022/05/21 11:54:42;;;;;;;4.50;2.75;;;;;;;;;;7385928;19;20151;-80
2022/05/21 11:57:08;;;;;;;4.38;2.80;;;;;;;;;;7388107;19;20602;-80
2022/05/21 11:59:53;;;;;;;3.33;3.00;;;;;;;;;;7390232;19;20172;-79
2022/05/21 12:02:24;;;;;;;4.32;3.30;;;;;;;;;;7380978;19;20279;-80
2022/05/21 12:04:52;;;;;;;4.95;3.83;;;;;;;;;;7380697;19;20145;-80
2022/05/21 12:07:36;;;;;;;5.40;3.20;;;;;;;;;;7379002;19;20476;-79
2022/05/21 12:10:04;;;;;;;5.35;2.90;;;;;;;;;;7383809;19;20514;-79
2022/05/21 12:12:31;;;;;;;4.88;2.53;;;;;;;;;;7384673;19;20484;-79
2022/05/21 12:15:11;;;;;;;3.03;2.60;;;;;;;;;;7383911;19;20682;-79
2022/05/21 12:17:45;;;;;;;4.03;3.25;;;;;;;;;;7385450;19;20625;-79
2022/05/21 12:20:16;;;;;;;5.00;2.80;;;;;;;;;;7387397;19;20127;-79
2022/05/21 12:22:42;;;;;;;3.25;2.95;;;;;;;;;;7383154;19;20568;-77
2022/05/21 12:25:13;;;;;;;5.45;3.35;;;;;;;;;;7385139;19;20156;-78
2022/05/21 12:27:50;;;;;;;3.83;3.30;;;;;;;;;;7383603;19;20153;-78
2022/05/21 12:30:23;;;;;;;3.70;3.08;;;;;;;;;;7382916;19;20714;-78
2022/05/21 12:32:50;;;;;;;3.55;3.25;;;;;;;;;;7384040;19;20169;-78
2022/05/21 12:35:24;;;;;;;3.72;3.30;;;;;;;;;;7383511;19;20166;-78
2022/05/21 12:38:16;;;;;;;4.70;3.75;;;;;;;;;;7383911;19;20133;-79
2022/05/21 12:41:03;;;;;;;4.25;3.53;;;;;;;;;;7382670;19;20152;-80
2022/05/21 12:43:41;;;;;;;4.45;3.60;;;;;;;;;;7385362;19;20121;-80
2022/05/21 12:46:17;;;;;;;3.28;2.97;;;;;;;;;;7384480;19;20156;-80
2022/05/21 12:48:44;;;;;;;3.75;3.40;;;;;;;;;;7387222;19;20136;-79
2022/05/21 12:51:11;;;;;;;7.03;3.40;;;;;;;;;;7382419;19;20164;-79
2022/05/21 12:53:42;;;;;;;4.55;3.67;;;;;;;;;;7383113;19;20552;-79
2022/05/21 12:56:11;;;;;;;5.93;3.50;;;;;;;;;;7384915;19;20189;-79
2022/05/21 12:58:37;;;;;;;4.13;3.65;;;;;;;;;;7386164;19;20122;-79
2022/05/21 13:01:03;;;;;;;3.80;3.40;;;;;;;;;;7386568;19;20475;-79
2022/05/21 13:03:32;;;;;;;4.55;3.78;;;;;;;;;;7372550;19;20125;-79
2022/05/21 13:06:00;;;;;;;3.45;2.88;;;;;;;;;;7390372;19;20219;-79
2022/05/21 13:08:27;;;;;;;3.35;3.00;;;;;;;;;;7380630;19;20152;-79
2022/05/21 13:11:02;;;;;;;3.22;2.80;;;;;;;;;;7383359;19;20229;-79
2022/05/21 13:13:31;;;;;;;3.15;2.85;;;;;;;;;;7384169;19;20124;-80
2022/05/21 13:15:58;;;;;;;5.10;2.95;;;;;;;;;;7383521;19;20293;-80
2022/05/21 13:18:43;;;;;;;3.72;2.50;;;;;;;;;;7373919;19;20137;-79
2022/05/21 13:21:12;;;;;;;3.95;2.83;;;;;;;;;;7385581;19;20152;-79
2022/05/21 13:23:41;;;;;;;3.85;2.85;;;;;;;;;;7383287;19;20135;-79
2022/05/21 13:26:07;;;;;;;4.70;2.80;;;;;;;;;;7378330;19;20168;-79
2022/05/21 13:28:33;;;;;;;3.50;3.20;;;;;;;;;;7379887;19;20602;-79
2022/05/21 13:30:59;;;;;;;4.63;2.95;;;;;;;;;;7393133;19;20153;-79
2022/05/21 13:33:30;;;;;;;3.47;2.90;;;;;;;;;;7390000;19;20555;-80
2022/05/21 13:35:58;;;;;;;5.07;3.05;;;;;;;;;;7396844;19;20156;-80
2022/05/21 13:38:32;;;;;;;4.07;3.25;;;;;;;;;;7391766;19;20480;-79
2022/05/21 13:40:59;;;;;;;4.90;3.35;;;;;;;;;;7387915;19;20432;-79
2022/05/21 13:43:31;;;;;;;5.80;3.42;;;;;;;;;;7390334;19;20500;-79
2022/05/21 13:45:58;;;;;;;5.53;3.30;;;;;;;;;;7383248;19;20173;-79
2022/05/21 13:48:28;;;;;;;6.70;3.60;;;;;;;;;;7387218;19;20150;-79
2022/05/21 13:50:55;;;;;;;6.15;3.55;;;;;;;;;;7387602;19;21635;-79
2022/05/21 13:53:28;;;;;;;3.65;3.33;;;;;;;;;;7388092;19;20144;-79
2022/05/21 13:55:59;;;;;;;4.88;3.63;;;;;;;;;;7385228;19;20183;-79
2022/05/21 13:58:35;;;;;;;7.47;4.43;;;;;;;;;;7384359;19;20148;-79
2022/05/21 14:01:03;;;;;;;4.25;3.42;;;;;;;;;;7385587;19;20165;-79
2022/05/21 14:03:32;;;;;;;5.10;3.95;;;;;;;;;;7372087;19;20192;-80
2022/05/21 14:06:03;;;;;;;4.65;3.30;;;;;;;;;;7375120;19;20188;-79
2022/05/21 14:08:34;;;;;;;3.63;3.33;;;;;;;;;;7382204;19;20148;-79
2022/05/21 14:11:03;;;;;;;7.20;3.47;;;;;;;;;;7386014;19;20137;-79
2022/05/21 14:13:34;;;;;;;6.90;3.33;;;;;;;;;;7379036;19;20835;-79
2022/05/21 14:16:02;;;;;;;5.85;3.35;;;;;;;;;;7380039;19;20235;-79
2022/05/21 14:18:41;;;;;;;7.60;3.90;;;;;;;;;;7380824;19;20631;-80
2022/05/21 14:21:20;;;;;;;4.30;3.45;;;;;;;;;;7377727;19;20496;-79
2022/05/21 14:23:46;;;;;;;3.90;3.53;;;;;;;;;;7389190;19;20468;-79
2022/05/21 14:26:18;;;;;;;4.05;3.50;;;;;;;;;;7378977;19;20181;-79
2022/05/21 14:28:45;;;;;;;4.75;3.95;;;;;;;;;;7388277;19;20121;-79
2022/05/21 14:31:30;;;;;;;5.35;3.22;;;;;;;;;;7387239;19;20172;-80
2022/05/21 14:33:58;;;;;;;3.78;3.40;;;;;;;;;;7391449;19;20564;-79
2022/05/21 14:36:27;;;;;;;4.05;3.65;;;;;;;;;;7389733;19;20718;-79
2022/05/21 14:38:53;;;;;;;5.60;3.28;;;;;;;;;;7391294;19;20144;-80
2022/05/21 14:41:33;;;;;;;4.53;3.33;;;;;;;;;;7381013;19;20125;-80
2022/05/21 14:44:01;;;;;;;5.85;3.38;;;;;;;;;;7380853;19;20168;-80
2022/05/21 14:49:12;;;;;;;4.75;3.22;;;;;;;;;;7407252;19;20419;-80
2022/05/21 14:54:25;;;;;;;7.70;6.03;;;;;;;;;;7418622;19;20128;-80
2022/05/21 14:56:51;;;;;;;4.05;3.35;;;;;;;;;;7414535;19;20380;-80
2022/05/21 14:59:17;;;;;;;6.35;3.47;;;;;;;;;;7403339;19;20477;-80
2022/05/21 15:01:43;;;;;;;4.53;3.50;;;;;;;;;;7415401;19;20152;-80
2022/05/21 15:04:09;;;;;;;4.15;3.47;;;;;;;;;;7417014;19;20129;-80
2022/05/21 15:06:38;;;;;;;5.47;3.63;;;;;;;;;;7410461;19;20157;-80
2022/05/21 15:09:05;;;;;;;4.63;4.05;;;;;;;;;;7401969;19;20160;-80
2022/05/21 15:11:31;;;;;;;3.97;3.33;;;;;;;;;;7384927;19;20141;-80
2022/05/21 15:13:57;;;;;;;6.35;3.50;;;;;;;;;;7381057;19;20129;-80
2022/05/21 15:16:23;;;;;;;5.03;4.55;;;;;;;;;;7385914;19;20495;-80
2022/05/21 15:18:49;;;;;;;4.20;3.80;;;;;;;;;;7413186;19;20121;-80
2022/05/21 15:21:20;;;;;;;3.78;3.47;;;;;;;;;;7413454;19;20154;-80
2022/05/21 15:23:46;;;;;;;5.65;3.30;;;;;;;;;;7405490;19;20129;-80
2022/05/21 15:26:12;;;;;;;5.75;4.15;;;;;;;;;;7399716;19;20172;-79
2022/05/21 15:28:39;;;;;;;4.03;3.58;;;;;;;;;;7377778;19;20148;-80
2022/05/21 15:31:06;;;;;;;3.47;3.17;;;;;;;;;;7373506;19;20148;-80
2022/05/21 15:33:33;;;;;;;6.32;3.28;;;;;;;;;;7384454;19;20551;-80